createdAt,value
2023-01-07T00:03:42.808Z,91.53
2023-01-07T00:07:44.205Z,91.84
2023-01-07T00:11:45.578Z,92.24
2023-01-07T00:15:46.961Z,92.07
2023-01-07T00:19:49.754Z,92.44
2023-01-07T00:23:53.893Z,92.14
2023-01-07T00:27:55.250Z,92.53
2023-01-07T00:31:56.601Z,92.26
2023-01-07T00:36:03.359Z,92.65
2023-01-07T00:40:05.132Z,92.46
2023-01-07T00:44:07.238Z,92.37
2023-01-07T00:48:08.960Z,92.64
2023-01-07T00:52:11.664Z,92.48
2023-01-07T00:56:13.922Z,92.40
2023-01-07T01:00:16.673Z,91.99
2023-01-07T01:04:18.037Z,92.50
2023-01-07T01:08:20.790Z,92.47
2023-01-07T01:12:22.184Z,92.31
2023-01-07T01:16:23.730Z,92.29
2023-01-07T01:20:25.126Z,92.14
2023-01-07T01:24:27.900Z,92.69
2023-01-07T01:28:29.254Z,92.63
2023-01-07T01:32:31.047Z,92.83
2023-01-07T01:36:32.407Z,93.26
2023-01-07T01:40:35.198Z,92.87
2023-01-07T01:44:41.516Z,93.17
2023-01-07T01:48:46.499Z,93.67
2023-01-07T01:52:50.121Z,93.79
2023-01-07T01:56:54.194Z,93.92
2023-01-07T02:00:55.868Z,93.79
2023-01-07T02:04:57.604Z,93.96
2023-01-07T02:08:58.979Z,94.00
2023-01-07T02:13:11.351Z,94.38
2023-01-07T02:17:16.503Z,94.06
2023-01-07T02:21:24.604Z,94.24
2023-01-07T02:25:46.797Z,94.05
2023-01-07T02:30:18.398Z,93.91
2023-01-07T02:34:25.914Z,94.12
2023-01-07T02:38:33.219Z,94.10
2023-01-07T02:42:37.522Z,93.68
2023-01-07T02:46:42.458Z,93.41
2023-01-07T02:50:45.191Z,94.02
2023-01-07T02:54:48.403Z,94.13
2023-01-07T02:58:56.369Z,94.07
2023-01-07T03:03:06.240Z,93.76
2023-01-07T03:07:19.752Z,93.34
2023-01-07T03:11:23.495Z,93.11
2023-01-07T03:15:29.094Z,93.09
2023-01-07T03:19:32.428Z,93.33
2023-01-07T03:23:37.121Z,93.18
2023-01-07T03:27:39.753Z,93.24
2023-01-07T03:31:46.285Z,93.31
2023-01-07T03:35:49.439Z,93.08
2023-01-07T03:39:52.576Z,93.48
2023-01-07T03:43:53.913Z,93.21
2023-01-07T03:47:56.104Z,92.83
2023-01-07T03:51:57.596Z,92.91
2023-01-07T03:56:00.304Z,93.20
2023-01-07T04:00:02.024Z,93.25
2023-01-07T04:04:03.686Z,92.81
2023-01-07T04:08:05.315Z,93.46
2023-01-07T04:12:08.399Z,93.49
2023-01-07T04:16:09.837Z,92.97
2023-01-07T04:20:11.369Z,93.18
2023-01-07T04:24:12.823Z,93.23
2023-01-07T04:28:15.581Z,93.05
2023-01-07T04:32:16.972Z,93.30
2023-01-07T04:36:18.628Z,93.70
2023-01-07T04:40:20.011Z,93.72
2023-01-07T04:44:22.775Z,93.38
2023-01-07T04:48:24.121Z,93.57
2023-01-07T04:52:25.451Z,93.51
2023-01-07T04:56:26.851Z,93.28
2023-01-07T05:00:29.542Z,93.78
2023-01-07T05:04:30.992Z,93.99
2023-01-07T05:08:32.421Z,94.24
2023-01-07T05:12:34.261Z,94.47
2023-01-07T05:16:36.974Z,94.28
2023-01-07T05:20:38.342Z,94.34
2023-01-07T05:24:39.723Z,93.01
2023-01-07T05:28:41.088Z,93.44
2023-01-07T05:32:43.795Z,94.13
2023-01-07T05:36:45.154Z,94.13
2023-01-07T05:40:49.443Z,94.43
2023-01-07T05:44:51.057Z,94.54
2023-01-07T05:48:53.747Z,94.33
2023-01-07T05:52:55.093Z,94.00
2023-01-07T05:56:56.455Z,94.11
2023-01-07T06:00:58.002Z,94.44
2023-01-07T06:05:00.814Z,94.58
2023-01-07T06:09:02.235Z,94.33
2023-01-07T06:13:03.584Z,94.43
2023-01-07T06:17:04.964Z,94.51
2023-01-07T06:21:07.654Z,94.56
2023-01-07T06:25:09.592Z,94.42
2023-01-07T06:29:11.026Z,94.38
2023-01-07T06:33:12.442Z,94.63
2023-01-07T06:37:15.171Z,94.56
2023-01-07T06:41:16.555Z,94.65
2023-01-07T06:45:17.911Z,94.75
2023-01-07T06:49:19.250Z,94.99
2023-01-07T06:53:21.967Z,94.36
2023-01-07T06:57:23.314Z,94.38
2023-01-07T07:01:24.755Z,94.31
2023-01-07T07:05:26.828Z,94.54
2023-01-07T07:09:29.550Z,94.62
2023-01-07T07:13:30.912Z,94.18
2023-01-07T07:17:32.316Z,94.37
2023-01-07T07:21:33.667Z,94.06
2023-01-07T07:25:36.365Z,94.00
2023-01-07T07:29:37.694Z,93.40
2023-01-07T07:33:39.137Z,92.89
2023-01-07T07:37:40.660Z,92.03
2023-01-07T07:41:43.356Z,91.97
2023-01-07T07:45:44.783Z,91.97
2023-01-07T07:49:46.137Z,91.42
2023-01-07T07:53:47.493Z,91.46
2023-01-07T07:57:52.704Z,91.35
2023-01-07T08:01:54.059Z,91.11
2023-01-07T08:05:55.420Z,90.37
2023-01-07T08:09:56.801Z,89.98
2023-01-07T08:13:59.498Z,90.06
2023-01-07T08:18:01.606Z,90.03
2023-01-07T08:22:02.982Z,89.42
2023-01-07T08:26:04.394Z,89.41
2023-01-07T08:30:07.879Z,89.51
2023-01-07T08:34:09.503Z,88.76
2023-01-07T08:38:10.851Z,88.72
2023-01-07T08:42:12.212Z,88.46
2023-01-07T08:46:15.009Z,87.56
2023-01-07T08:50:16.476Z,87.86
2023-01-07T08:54:17.812Z,88.17
2023-01-07T08:58:19.126Z,88.12
2023-01-07T09:02:21.911Z,88.33
2023-01-07T09:06:23.274Z,87.87
2023-01-07T09:10:24.818Z,86.88
2023-01-07T09:14:26.259Z,86.76
2023-01-07T09:18:28.952Z,86.13
2023-01-07T09:22:30.940Z,86.22
2023-01-07T09:26:32.290Z,86.23
2023-01-07T09:30:33.699Z,85.70
2023-01-07T09:34:36.386Z,85.92
2023-01-07T09:38:37.744Z,84.04
2023-01-07T09:42:43.176Z,83.93
2023-01-07T09:46:45.074Z,84.16
2023-01-07T09:50:49.818Z,83.25
2023-01-07T09:54:53.590Z,83.37
2023-01-07T09:58:55.877Z,82.45
2023-01-07T10:03:04.409Z,82.60
2023-01-07T10:07:13.763Z,81.49
2023-01-07T10:11:22.425Z,79.86
2023-01-07T10:15:30.313Z,79.10
2023-01-07T10:19:36.678Z,79.56
2023-01-07T10:23:41.511Z,78.01
2023-01-07T10:27:43.853Z,75.63
2023-01-07T10:31:45.723Z,76.66
2023-01-07T10:35:47.974Z,76.29
2023-01-07T10:39:55.186Z,74.74
2023-01-07T10:44:17.178Z,75.02
2023-01-07T10:48:28.711Z,74.10
2023-01-07T10:52:37.665Z,72.93
2023-01-07T10:56:42.872Z,73.07
2023-01-07T11:00:46.341Z,73.63
2023-01-07T11:04:47.863Z,72.88
2023-01-07T11:08:49.264Z,72.39
2023-01-07T11:12:53.900Z,72.29
2023-01-07T11:16:58.135Z,71.06
2023-01-07T11:21:00.209Z,71.18
2023-01-07T11:25:02.362Z,69.49
2023-01-07T11:29:16.065Z,69.28
2023-01-07T11:33:19.778Z,68.58
2023-01-07T11:37:30.724Z,68.86
2023-01-07T11:41:32.102Z,69.55
2023-01-07T11:45:35.897Z,69.82
2023-01-07T11:49:43.413Z,70.24
2023-01-07T11:53:45.691Z,69.44
2023-01-07T11:57:53.189Z,70.33
2023-01-07T12:01:57.721Z,69.95
2023-01-07T12:06:04.305Z,70.76
2023-01-07T12:10:24.293Z,71.71
2023-01-07T12:14:27.450Z,70.75
2023-01-07T12:18:37.508Z,71.28
2023-01-07T12:22:46.997Z,72.11
2023-01-07T12:26:52.461Z,72.98
2023-01-07T12:31:05.664Z,73.57
2023-01-07T12:35:15.125Z,74.05
2023-01-07T12:39:22.471Z,73.97
2023-01-07T12:43:28.293Z,74.51
2023-01-07T12:47:34.903Z,73.81
2023-01-07T12:51:40.808Z,73.16
2023-01-07T12:55:46.391Z,73.60
2023-01-07T12:59:50.044Z,72.72
2023-01-07T13:03:55.190Z,72.31
2023-01-07T13:07:59.047Z,71.96
2023-01-07T13:12:04.298Z,71.92
2023-01-07T13:16:09.122Z,71.95
2023-01-07T13:20:11.906Z,72.05
2023-01-07T13:24:21.006Z,72.37
2023-01-07T13:28:57.219Z,72.94
2023-01-07T13:33:08.009Z,72.79
2023-01-07T13:37:20.735Z,73.42
2023-01-07T13:41:31.091Z,73.29
2023-01-07T13:45:33.649Z,73.89
2023-01-07T13:49:36.483Z,73.87
2023-01-07T13:53:45.443Z,74.52
2023-01-07T13:57:46.823Z,74.84
2023-01-07T14:02:03.214Z,75.23
2023-01-07T14:06:23.460Z,75.80
2023-01-07T14:10:28.871Z,76.21
2023-01-07T14:14:36.376Z,76.78
2023-01-07T14:18:49.981Z,76.01
2023-01-07T14:22:57.563Z,76.71
2023-01-07T14:27:06.992Z,77.68
2023-01-07T14:31:19.335Z,77.64
2023-01-07T14:35:23.941Z,79.31
2023-01-07T14:39:32.488Z,79.46
2023-01-07T14:43:48.779Z,80.55
2023-01-07T14:47:53.727Z,81.12
2023-01-07T14:51:58.268Z,81.67
2023-01-07T14:56:10.820Z,82.21
2023-01-07T15:00:31.171Z,82.65
2023-01-07T15:04:47.399Z,82.64
2023-01-07T15:08:50.356Z,83.43
2023-01-07T15:12:55.487Z,83.48
2023-01-07T15:16:58.424Z,83.21
2023-01-07T15:21:12.879Z,84.61
2023-01-07T15:25:28.627Z,85.23
2023-01-07T15:29:33.463Z,85.83
2023-01-07T15:33:42.555Z,86.60
2023-01-07T15:37:46.942Z,85.68
2023-01-07T15:41:50.575Z,86.88
2023-01-07T15:45:57.890Z,86.84
2023-01-07T15:54:32.938Z,88.07
2023-01-07T15:58:35.427Z,88.30
2023-01-07T16:02:39.021Z,87.80
2023-01-07T16:06:41.235Z,88.35
2023-01-07T16:10:56.451Z,88.37
2023-01-07T16:14:57.809Z,89.42
2023-01-07T16:19:00.084Z,91.04
2023-01-07T16:23:10.635Z,91.28
2023-01-07T16:27:13.545Z,91.58
2023-01-07T16:31:16.483Z,91.75
2023-01-07T16:35:20.372Z,90.68
2023-01-07T16:39:23.782Z,90.81
2023-01-07T16:43:31.741Z,91.48
2023-01-07T16:47:34.085Z,92.12
2023-01-07T16:51:37.324Z,92.18
2023-01-07T16:55:45.688Z,91.58
2023-01-07T16:59:49.332Z,92.59
2023-01-07T17:03:53.214Z,93.36
2023-01-07T17:07:55.844Z,92.42
2023-01-07T17:11:57.278Z,93.40
2023-01-07T17:16:15.073Z,92.96
2023-01-07T17:20:17.921Z,92.81
2023-01-07T17:24:23.398Z,92.98
2023-01-07T17:28:25.885Z,92.97
2023-01-07T17:32:28.630Z,93.08
2023-01-07T17:36:30.062Z,93.47
2023-01-07T17:40:31.422Z,93.32
2023-01-07T17:44:32.960Z,92.81
2023-01-07T17:48:36.156Z,93.05
2023-01-07T17:52:37.528Z,93.05
2023-01-07T17:56:38.908Z,93.43
2023-01-07T18:00:40.380Z,93.29
2023-01-07T18:04:43.100Z,92.81
2023-01-07T18:08:44.670Z,92.11
2023-01-07T18:12:46.154Z,92.29
2023-01-07T18:16:47.684Z,92.54
2023-01-07T18:20:50.504Z,92.14
2023-01-07T18:24:51.881Z,92.27
2023-01-07T18:28:53.343Z,93.12
2023-01-07T18:32:54.706Z,93.14
2023-01-07T18:36:57.432Z,92.62
2023-01-07T18:40:58.818Z,93.00
2023-01-07T18:45:00.540Z,93.54
2023-01-07T18:49:01.927Z,93.63
2023-01-07T18:53:04.639Z,93.85
2023-01-07T18:57:06.094Z,93.17
2023-01-07T19:01:08.120Z,93.59
2023-01-07T19:05:09.776Z,93.71
2023-01-07T19:09:12.525Z,94.67
2023-01-07T19:13:13.906Z,94.93
2023-01-07T19:17:15.318Z,94.00
2023-01-07T19:21:16.705Z,94.05
2023-01-07T19:25:19.422Z,93.90
2023-01-07T19:29:20.782Z,94.25
2023-01-07T19:33:22.155Z,94.72
2023-01-07T19:37:23.541Z,93.75
2023-01-07T19:41:26.588Z,93.32
2023-01-07T19:45:27.980Z,94.13
2023-01-07T19:49:29.404Z,94.44
2023-01-07T19:53:31.742Z,94.48
2023-01-07T19:57:34.454Z,94.42
2023-01-07T20:01:36.052Z,94.56
2023-01-07T20:05:37.481Z,95.05
2023-01-07T20:09:38.864Z,94.72
2023-01-07T20:13:43.998Z,94.16
2023-01-07T20:17:45.370Z,94.23
2023-01-07T20:21:46.747Z,94.13
2023-01-07T20:25:48.154Z,94.81
2023-01-07T20:29:50.904Z,96.33
2023-01-07T20:33:52.329Z,95.63
2023-01-07T20:37:53.721Z,96.05
2023-01-07T20:41:55.080Z,95.98
2023-01-07T20:45:59.662Z,96.29
2023-01-07T20:50:01.076Z,95.82
2023-01-07T20:54:02.419Z,95.77
2023-01-07T20:58:03.775Z,95.64
2023-01-07T21:02:06.775Z,96.66
2023-01-07T21:06:10.057Z,96.76
2023-01-07T21:10:11.637Z,96.61
2023-01-07T21:14:13.137Z,96.30
2023-01-07T21:18:15.866Z,97.12
2023-01-07T21:22:17.230Z,96.69
2023-01-07T21:26:18.720Z,96.02
2023-01-07T21:30:20.184Z,96.50
2023-01-07T21:34:22.974Z,96.51
2023-01-07T21:38:24.320Z,96.72
2023-01-07T21:42:25.700Z,96.18
2023-01-07T21:46:27.063Z,96.02
2023-01-07T21:50:29.755Z,95.72
2023-01-07T21:54:31.076Z,95.86
2023-01-07T21:58:32.412Z,96.53
2023-01-07T22:02:33.750Z,96.00
2023-01-07T22:06:36.476Z,95.96
2023-01-07T22:10:37.812Z,96.09
2023-01-07T22:14:39.290Z,95.74
2023-01-07T22:18:40.626Z,96.22
2023-01-07T22:22:43.315Z,96.63
2023-01-07T22:26:44.666Z,96.67
2023-01-07T22:30:48.601Z,97.19
2023-01-07T22:34:49.960Z,96.65
2023-01-07T22:38:53.349Z,97.56
2023-01-07T22:42:56.502Z,97.47
2023-01-07T22:46:58.034Z,96.74
2023-01-07T22:51:02.959Z,96.02
2023-01-07T22:55:06.285Z,96.32
2023-01-07T22:59:07.649Z,96.29
2023-01-07T23:03:09.038Z,96.59
2023-01-07T23:07:10.415Z,95.96
2023-01-07T23:11:13.133Z,96.13
2023-01-07T23:15:14.603Z,96.10
2023-01-07T23:19:16.104Z,96.36
2023-01-07T23:23:17.453Z,96.00
2023-01-07T23:27:20.291Z,96.67
2023-01-07T23:31:21.656Z,95.86
2023-01-07T23:35:23.039Z,95.41
2023-01-07T23:39:24.415Z,95.05
2023-01-07T23:43:27.096Z,95.28
2023-01-07T23:47:28.437Z,95.42
2023-01-07T23:51:29.768Z,95.23
2023-01-07T23:55:31.133Z,96.41
2023-01-07T23:59:33.985Z,96.55
